Trade Navigator — PCYA — position and weather

sailwx.info

Track history (hours):
 
Tides and Currents Weather Stations Pressure Air Temp Water Temp Dewpoint Dewpoint Depression Visibility Wind Speed Wind Dir Waves Ship Positions

Trade Navigator

Last reported at 2018-Jan-19 08:00 UTC. Time now 2018-Jan-19 08:01 UTC.
Position N 50°34' E 000°10'.

Length 118 m; draft 6.7 m.

Type: Cargo ship. MMSI: 244650331.

Date/timePositionNaut miles runAvg speedWind from/ knotsBaromVisibWave heightAir tempDewpointWater temp
2018-Jan-19 08:00N 50°34' E 000°10'611.4
2018-Jan-19 07:30N 50°35' E 000°19'612.1
2018-Jan-19 07:00N 50°37' E 000°28'612.3
2018-Jan-19 06:30N 50°39' E 000°37'612.6
2018-Jan-19 06:00N 50°43' E 000°45'612.6
2018-Jan-19 05:30N 50°47' E 000°53'612.3
2018-Jan-19 05:00N 50°50' E 001°01'611.9
2018-Jan-19 04:29N 50°54' E 001°09'611.6
2018-Jan-19 04:00N 50°58' E 001°15'510.5
2018-Jan-19 03:30N 51°01' E 001°22'5 9.8
2018-Jan-19 03:00N 51°04' E 001°28'4 8.5
2018-Jan-19 02:30N 51°07' E 001°33'4 7.9
2018-Jan-19 02:00N 51°10' E 001°38'4 8.4
2018-Jan-19 01:31N 51°12' E 001°43'4 7.9
2018-Jan-19 01:01N 51°15' E 001°48'4 8.8
2018-Jan-19 00:30N 51°18' E 001°52'510.0
2018-Jan-19 00:00N 51°23' E 001°57'5 9.4
2018-Jan-18 23:30N 51°24' E 002°03'510.4
2018-Jan-18 23:00N 51°22' E 002°11'510.4
2018-Jan-18 22:30N 51°21' E 002°19'611.8
2018-Jan-18 22:00N 51°22' E 002°28'611.5
2018-Jan-18 21:27N 51°22' E 002°39'4 8.6
2018-Jan-18 20:58N 51°22' E 002°45'511.5
2018-Jan-18 20:30N 51°23' E 002°54'612.7
2018-Jan-18 20:00N 51°25' E 003°03'713.3
2018-Jan-18 19:30N 51°25' E 003°14'714.3
2018-Jan-18 19:00N 51°25' E 003°25'714.8
2018-Jan-18 18:30N 51°26' E 003°37'4 8.1
2018-Jan-18 18:00N 51°28' E 003°42'0 0.6
2018-Jan-18 17:30N 51°29' E 003°42'0 0.0
2018-Jan-18 16:58N 51°29' E 003°42'0 0.0
2018-Jan-18 16:28N 51°29' E 003°42'0 0.0
2018-Jan-18 15:58N 51°29' E 003°42'0 0.0
2018-Jan-18 15:28N 51°29' E 003°42'0 0.0
2018-Jan-18 14:58N 51°29' E 003°42'0 0.0
2018-Jan-18 14:28N 51°29' E 003°42'0 0.0
2018-Jan-18 13:58N 51°29' E 003°42'0 0.0
2018-Jan-18 13:28N 51°29' E 003°42'0 0.0
2018-Jan-18 12:58N 51°29' E 003°42'0 0.0
2018-Jan-18 12:22N 51°29' E 003°42'0 0.0
2018-Jan-18 11:58N 51°29' E 003°42'0 0.0
2018-Jan-18 11:28N 51°29' E 003°42'0 0.0
2018-Jan-18 10:58N 51°29' E 003°42'0 0.0
2018-Jan-18 10:22N 51°29' E 003°42'0 0.0
2018-Jan-18 09:58N 51°29' E 003°42'0 0.0
2018-Jan-18 09:28N 51°29' E 003°42'0 0.0
2018-Jan-18 08:58N 51°29' E 003°42'0 0.0
2018-Jan-18 08:28N 51°29' E 003°42'0 0.0
2018-Jan-18 07:46N 51°29' E 003°42'0 0.0
2018-Jan-18 07:04N 51°29' E 003°42'0 0.0
2018-Jan-18 06:52N 51°29' E 003°42'0 0.0
2018-Jan-18 06:04N 51°29' E 003°42'0 0.0
2018-Jan-18 05:58N 51°29' E 003°42'0 0.0
2018-Jan-18 05:28N 51°29' E 003°42'0 0.0
2018-Jan-18 04:58N 51°29' E 003°42'0 0.0
2018-Jan-18 04:28N 51°29' E 003°42'0 0.0
2018-Jan-18 03:52N 51°29' E 003°42'0 0.0
2018-Jan-18 03:28N 51°29' E 003°42'0 0.0
2018-Jan-18 02:58N 51°29' E 003°42'0 0.0
2018-Jan-18 02:22N 51°29' E 003°42'0 0.0
2018-Jan-18 02:00N 51°29' E 003°42'0 0.0
2018-Jan-18 01:30N 51°29' E 003°42'0 0.0
2018-Jan-18 01:00N 51°29' E 003°42'0 0.0
2018-Jan-18 00:00N 51°29' E 003°42'0 0.0
2018-Jan-17 23:54N 51°29' E 003°42'  
2018-Jan-12 14:59N 51°29' E 003°42'0 0.0
2018-Jan-12 14:29N 51°29' E 003°42'0 0.0
2018-Jan-12 13:53N 51°29' E 003°42'0 0.0
2018-Jan-12 13:29N 51°29' E 003°42'0 0.0
2018-Jan-12 12:53N 51°29' E 003°42'0 0.0
2018-Jan-12 12:30N 51°29' E 003°42'0 0.0
2018-Jan-12 12:01N 51°29' E 003°42'0 0.0
2018-Jan-12 11:31N 51°29' E 003°42'0 0.0
2018-Jan-12 11:00N 51°29' E 003°42'0 0.0
2018-Jan-12 10:26N 51°29' E 003°42'0 0.0
2018-Jan-12 09:56N 51°29' E 003°42'0 0.0
2018-Jan-12 09:26N 51°29' E 003°42'0 0.0
2018-Jan-12 08:56N 51°29' E 003°42'0 0.0
2018-Jan-12 08:26N 51°29' E 003°42'0 0.0
2018-Jan-12 07:59N 51°29' E 003°42'0 0.0
2018-Jan-12 07:20N 51°29' E 003°42'0 0.0
2018-Jan-12 06:56N 51°29' E 003°42'0 0.0
2018-Jan-12 06:26N 51°29' E 003°42'0 0.0
2018-Jan-12 05:56N 51°29' E 003°42'0 0.0
2018-Jan-12 05:26N 51°29' E 003°42'0 0.0
2018-Jan-12 04:56N 51°29' E 003°42'0 0.0
2018-Jan-12 04:26N 51°29' E 003°42'0 0.0
2018-Jan-12 03:56N 51°29' E 003°42'0 0.0
2018-Jan-12 03:26N 51°29' E 003°42'0 0.0
2018-Jan-12 02:56N 51°29' E 003°42'0 0.0
2018-Jan-12 02:26N 51°29' E 003°42'0 0.0
2018-Jan-12 01:44N 51°29' E 003°42'0 0.0
2018-Jan-12 01:26N 51°29' E 003°42'0 0.0
2018-Jan-12 00:44N 51°29' E 003°42'0 0.0
2018-Jan-12 00:20N 51°29' E 003°42'0 0.0
2018-Jan-11 23:56N 51°29' E 003°42'0 0.0
2018-Jan-11 23:20N 51°29' E 003°42'0 0.0
2018-Jan-11 22:56N 51°29' E 003°42'0 0.0
2018-Jan-11 22:26N 51°29' E 003°42'0 0.0
2018-Jan-11 21:50N 51°29' E 003°42'0 0.0
2018-Jan-11 21:26N 51°29' E 003°42'0 0.0
2018-Jan-11 20:56N 51°29' E 003°42'0 0.0
2018-Jan-11 20:26N 51°29' E 003°42'0 0.0
2018-Jan-11 19:56N 51°29' E 003°42'0 0.0
2018-Jan-11 19:26N 51°29' E 003°42'0 0.0
2018-Jan-11 18:56N 51°29' E 003°42'0 0.0
2018-Jan-11 18:26N 51°29' E 003°42'0 0.0
2018-Jan-11 17:50N 51°29' E 003°42'0 0.0
2018-Jan-11 17:14N 51°29' E 003°42'0 0.0
2018-Jan-11 16:38N 51°29' E 003°42'0 0.0
2018-Jan-11 16:26N 51°29' E 003°42'0 0.0
2018-Jan-11 15:38N 51°29' E 003°42'0 0.0
2018-Jan-11 15:26N 51°29' E 003°42'0 0.0
2018-Jan-11 14:56N 51°29' E 003°42'0 0.0
2018-Jan-11 14:26N 51°29' E 003°42'0 0.0
2018-Jan-11 13:56N 51°29' E 003°42'0 0.0
2018-Jan-11 13:26N 51°29' E 003°42'0 0.0
2018-Jan-11 12:44N 51°29' E 003°42'0 0.0
2018-Jan-11 12:26N 51°29' E 003°42'0 0.0
2018-Jan-11 11:56N 51°29' E 003°42'0 0.0
2018-Jan-11 11:26N 51°29' E 003°42'0 0.0
2018-Jan-11 10:56N 51°29' E 003°42'0 0.0
2018-Jan-11 10:26N 51°29' E 003°42'0 0.0
2018-Jan-11 09:56N 51°29' E 003°42'0 0.0
2018-Jan-11 09:14N 51°29' E 003°42'0 0.0
2018-Jan-11 08:56N 51°29' E 003°42'0 0.0
2018-Jan-11 08:20N 51°29' E 003°42'0 0.0
2018-Jan-11 07:44N 51°29' E 003°42'0 0.0
2018-Jan-11 07:26N 51°29' E 003°42'0 0.0
2018-Jan-11 06:50N 51°29' E 003°42'0 0.0
2018-Jan-11 06:26N 51°29' E 003°42'0 0.0
2018-Jan-11 05:56N 51°29' E 003°42'0 0.0
2018-Jan-11 05:26N 51°29' E 003°42'0 0.0
2018-Jan-11 04:56N 51°29' E 003°42'0 0.0
2018-Jan-11 04:26N 51°29' E 003°42'0 0.0
2018-Jan-11 03:56N 51°29' E 003°42'0 0.0
2018-Jan-11 03:20N 51°29' E 003°42'0 0.0
2018-Jan-11 02:56N 51°29' E 003°42'0 0.0
2018-Jan-11 02:26N 51°29' E 003°42'0 0.0
2018-Jan-11 01:56N 51°29' E 003°42'0 0.0
2018-Jan-11 01:20N 51°29' E 003°42'0 0.0
2018-Jan-11 00:56N 51°29' E 003°42'0 0.0
2018-Jan-11 00:26N 51°29' E 003°42'0 0.0
2018-Jan-10 23:56N 51°29' E 003°42'0 0.0
2018-Jan-10 23:26N 51°29' E 003°42'0 0.0
2018-Jan-10 22:56N 51°29' E 003°42'0 0.0
2018-Jan-10 22:29N 51°29' E 003°42'0 0.0
2018-Jan-10 21:59N 51°29' E 003°42'0 0.0
2018-Jan-10 21:30N 51°29' E 003°42'0 0.0
2018-Jan-10 20:59N 51°29' E 003°42'1 1.8
2018-Jan-10 20:30N 51°28' E 003°42'510.1
2018-Jan-10 20:00N 51°26' E 003°34'612.7
2018-Jan-10 19:30N 51°31' E 003°27'612.1
2018-Jan-10 19:00N 51°36' E 003°23'1311.5
2018-Jan-10 17:54N 51°48' E 003°15'3 6.9
2018-Jan-10 17:30N 51°51' E 003°16'2 4.9
2018-Jan-10 16:59N 51°53' E 003°17'10910.1
2018-Jan-10 06:12N 53°29' E 004°42'313.6
2018-Jan-10 06:00N 53°30' E 004°47'713.7
2018-Jan-10 05:30N 53°33' E 004°57'713.6
2018-Jan-10 05:00N 53°35' E 005°08'10111.9
2018-Jan-09 20:30N 53°52' E 007°57'714.9
2018-Jan-09 20:00N 53°48' E 008°08'815.7
2018-Jan-09 19:30N 53°43' E 008°18'714.7
2018-Jan-09 19:00N 53°38' E 008°27'510.0
2018-Jan-09 18:30N 53°34' E 008°33'0 0.0
2018-Jan-09 18:00N 53°34' E 008°33'0 0.0
2018-Jan-09 17:31N 53°34' E 008°33'0 0.0
2018-Jan-09 16:59N 53°34' E 008°33'0 0.0
2018-Jan-09 16:29N 53°34' E 008°33'0 0.0
2018-Jan-09 15:59N 53°34' E 008°33'0 0.0
2018-Jan-09 15:29N 53°34' E 008°33'0 0.0
2018-Jan-09 14:59N 53°34' E 008°33'0 0.0
2018-Jan-09 14:29N 53°34' E 008°33'0 0.0
2018-Jan-09 13:59N 53°34' E 008°33'0 0.0
2018-Jan-09 13:29N 53°34' E 008°33'0 0.0
2018-Jan-09 12:58N 53°34' E 008°33'0 0.0
2018-Jan-09 12:28N 53°34' E 008°33'0 0.0
2018-Jan-09 11:58N 53°34' E 008°33'0 0.0
2018-Jan-09 11:28N 53°34' E 008°33'0 0.0
2018-Jan-09 10:58N 53°34' E 008°33'0 0.0
2018-Jan-09 10:28N 53°34' E 008°33'0 0.0
2018-Jan-09 09:58N 53°34' E 008°33'0 0.0
2018-Jan-09 09:28N 53°34' E 008°33'0 0.0
2018-Jan-09 08:58N 53°34' E 008°33'0 0.0
2018-Jan-09 08:28N 53°34' E 008°33'0 0.0
2018-Jan-09 07:58N 53°34' E 008°33'  
Track history (hours):
 
Tides and Currents Weather Stations Pressure Air Temp Water Temp Dewpoint Dewpoint Depression Visibility Wind Speed Wind Dir Waves Ship Positions

Trade Navigator

Last reported at 2018-Jan-19 08:00 UTC. Time now 2018-Jan-19 08:01 UTC.
Position N 50°34' E 000°10'.

Length 118 m; draft 6.7 m.

Type: Cargo ship. MMSI: 244650331.

Date/timePositionNaut miles runAvg speedWind from/ knotsBaromVisibWave heightAir tempDewpointWater temp
2018-Jan-19 08:00N 50°34' E 000°10'611.4
2018-Jan-19 07:30N 50°35' E 000°19'612.1
2018-Jan-19 07:00N 50°37' E 000°28'612.3
2018-Jan-19 06:30N 50°39' E 000°37'612.6
2018-Jan-19 06:00N 50°43' E 000°45'612.6
2018-Jan-19 05:30N 50°47' E 000°53'612.3
2018-Jan-19 05:00N 50°50' E 001°01'611.9
2018-Jan-19 04:29N 50°54' E 001°09'611.6
2018-Jan-19 04:00N 50°58' E 001°15'510.5
2018-Jan-19 03:30N 51°01' E 001°22'5 9.8
2018-Jan-19 03:00N 51°04' E 001°28'4 8.5
2018-Jan-19 02:30N 51°07' E 001°33'4 7.9
2018-Jan-19 02:00N 51°10' E 001°38'4 8.4
2018-Jan-19 01:31N 51°12' E 001°43'4 7.9
2018-Jan-19 01:01N 51°15' E 001°48'4 8.8
2018-Jan-19 00:30N 51°18' E 001°52'510.0
2018-Jan-19 00:00N 51°23' E 001°57'5 9.4
2018-Jan-18 23:30N 51°24' E 002°03'510.4
2018-Jan-18 23:00N 51°22' E 002°11'510.4
2018-Jan-18 22:30N 51°21' E 002°19'611.8
2018-Jan-18 22:00N 51°22' E 002°28'611.5
2018-Jan-18 21:27N 51°22' E 002°39'4 8.6
2018-Jan-18 20:58N 51°22' E 002°45'511.5
2018-Jan-18 20:30N 51°23' E 002°54'612.7
2018-Jan-18 20:00N 51°25' E 003°03'713.3
2018-Jan-18 19:30N 51°25' E 003°14'714.3
2018-Jan-18 19:00N 51°25' E 003°25'714.8
2018-Jan-18 18:30N 51°26' E 003°37'4 8.1
2018-Jan-18 18:00N 51°28' E 003°42'0 0.6
2018-Jan-18 17:30N 51°29' E 003°42'0 0.0
2018-Jan-18 16:58N 51°29' E 003°42'0 0.0
2018-Jan-18 16:28N 51°29' E 003°42'0 0.0
2018-Jan-18 15:58N 51°29' E 003°42'0 0.0
2018-Jan-18 15:28N 51°29' E 003°42'0 0.0
2018-Jan-18 14:58N 51°29' E 003°42'0 0.0
2018-Jan-18 14:28N 51°29' E 003°42'0 0.0
2018-Jan-18 13:58N 51°29' E 003°42'0 0.0
2018-Jan-18 13:28N 51°29' E 003°42'0 0.0
2018-Jan-18 12:58N 51°29' E 003°42'0 0.0
2018-Jan-18 12:22N 51°29' E 003°42'0 0.0
2018-Jan-18 11:58N 51°29' E 003°42'0 0.0
2018-Jan-18 11:28N 51°29' E 003°42'0 0.0
2018-Jan-18 10:58N 51°29' E 003°42'0 0.0
2018-Jan-18 10:22N 51°29' E 003°42'0 0.0
2018-Jan-18 09:58N 51°29' E 003°42'0 0.0
2018-Jan-18 09:28N 51°29' E 003°42'0 0.0
2018-Jan-18 08:58N 51°29' E 003°42'0 0.0
2018-Jan-18 08:28N 51°29' E 003°42'0 0.0
2018-Jan-18 07:46N 51°29' E 003°42'0 0.0
2018-Jan-18 07:04N 51°29' E 003°42'0 0.0
2018-Jan-18 06:52N 51°29' E 003°42'0 0.0
2018-Jan-18 06:04N 51°29' E 003°42'0 0.0
2018-Jan-18 05:58N 51°29' E 003°42'0 0.0
2018-Jan-18 05:28N 51°29' E 003°42'0 0.0
2018-Jan-18 04:58N 51°29' E 003°42'0 0.0
2018-Jan-18 04:28N 51°29' E 003°42'0 0.0
2018-Jan-18 03:52N 51°29' E 003°42'0 0.0
2018-Jan-18 03:28N 51°29' E 003°42'0 0.0
2018-Jan-18 02:58N 51°29' E 003°42'0 0.0
2018-Jan-18 02:22N 51°29' E 003°42'0 0.0
2018-Jan-18 02:00N 51°29' E 003°42'0 0.0
2018-Jan-18 01:30N 51°29' E 003°42'0 0.0
2018-Jan-18 01:00N 51°29' E 003°42'0 0.0
2018-Jan-18 00:00N 51°29' E 003°42'0 0.0
2018-Jan-17 23:54N 51°29' E 003°42'  
2018-Jan-12 14:59N 51°29' E 003°42'0 0.0
2018-Jan-12 14:29N 51°29' E 003°42'0 0.0
2018-Jan-12 13:53N 51°29' E 003°42'0 0.0
2018-Jan-12 13:29N 51°29' E 003°42'0 0.0
2018-Jan-12 12:53N 51°29' E 003°42'0 0.0
2018-Jan-12 12:30N 51°29' E 003°42'0 0.0
2018-Jan-12 12:01N 51°29' E 003°42'0 0.0
2018-Jan-12 11:31N 51°29' E 003°42'0 0.0
2018-Jan-12 11:00N 51°29' E 003°42'0 0.0
2018-Jan-12 10:26N 51°29' E 003°42'0 0.0
2018-Jan-12 09:56N 51°29' E 003°42'0 0.0
2018-Jan-12 09:26N 51°29' E 003°42'0 0.0
2018-Jan-12 08:56N 51°29' E 003°42'0 0.0
2018-Jan-12 08:26N 51°29' E 003°42'0 0.0
2018-Jan-12 07:59N 51°29' E 003°42'0 0.0
2018-Jan-12 07:20N 51°29' E 003°42'0 0.0
2018-Jan-12 06:56N 51°29' E 003°42'0 0.0
2018-Jan-12 06:26N 51°29' E 003°42'0 0.0
2018-Jan-12 05:56N 51°29' E 003°42'0 0.0
2018-Jan-12 05:26N 51°29' E 003°42'0 0.0
2018-Jan-12 04:56N 51°29' E 003°42'0 0.0
2018-Jan-12 04:26N 51°29' E 003°42'0 0.0
2018-Jan-12 03:56N 51°29' E 003°42'0 0.0
2018-Jan-12 03:26N 51°29' E 003°42'0 0.0
2018-Jan-12 02:56N 51°29' E 003°42'0 0.0
2018-Jan-12 02:26N 51°29' E 003°42'0 0.0
2018-Jan-12 01:44N 51°29' E 003°42'0 0.0
2018-Jan-12 01:26N 51°29' E 003°42'0 0.0
2018-Jan-12 00:44N 51°29' E 003°42'0 0.0
2018-Jan-12 00:20N 51°29' E 003°42'0 0.0
2018-Jan-11 23:56N 51°29' E 003°42'0 0.0
2018-Jan-11 23:20N 51°29' E 003°42'0 0.0
2018-Jan-11 22:56N 51°29' E 003°42'0 0.0
2018-Jan-11 22:26N 51°29' E 003°42'0 0.0
2018-Jan-11 21:50N 51°29' E 003°42'0 0.0
2018-Jan-11 21:26N 51°29' E 003°42'0 0.0
2018-Jan-11 20:56N 51°29' E 003°42'0 0.0
2018-Jan-11 20:26N 51°29' E 003°42'0 0.0
2018-Jan-11 19:56N 51°29' E 003°42'0 0.0
2018-Jan-11 19:26N 51°29' E 003°42'0 0.0
2018-Jan-11 18:56N 51°29' E 003°42'0 0.0
2018-Jan-11 18:26N 51°29' E 003°42'0 0.0
2018-Jan-11 17:50N 51°29' E 003°42'0 0.0
2018-Jan-11 17:14N 51°29' E 003°42'0 0.0
2018-Jan-11 16:38N 51°29' E 003°42'0 0.0
2018-Jan-11 16:26N 51°29' E 003°42'0 0.0
2018-Jan-11 15:38N 51°29' E 003°42'0 0.0
2018-Jan-11 15:26N 51°29' E 003°42'0 0.0
2018-Jan-11 14:56N 51°29' E 003°42'0 0.0
2018-Jan-11 14:26N 51°29' E 003°42'0 0.0
2018-Jan-11 13:56N 51°29' E 003°42'0 0.0
2018-Jan-11 13:26N 51°29' E 003°42'0 0.0
2018-Jan-11 12:44N 51°29' E 003°42'0 0.0
2018-Jan-11 12:26N 51°29' E 003°42'0 0.0
2018-Jan-11 11:56N 51°29' E 003°42'0 0.0
2018-Jan-11 11:26N 51°29' E 003°42'0 0.0
2018-Jan-11 10:56N 51°29' E 003°42'0 0.0
2018-Jan-11 10:26N 51°29' E 003°42'0 0.0
2018-Jan-11 09:56N 51°29' E 003°42'0 0.0
2018-Jan-11 09:14N 51°29' E 003°42'0 0.0
2018-Jan-11 08:56N 51°29' E 003°42'0 0.0
2018-Jan-11 08:20N 51°29' E 003°42'0 0.0
2018-Jan-11 07:44N 51°29' E 003°42'0 0.0
2018-Jan-11 07:26N 51°29' E 003°42'0 0.0
2018-Jan-11 06:50N 51°29' E 003°42'0 0.0
2018-Jan-11 06:26N 51°29' E 003°42'0 0.0
2018-Jan-11 05:56N 51°29' E 003°42'0 0.0
2018-Jan-11 05:26N 51°29' E 003°42'0 0.0
2018-Jan-11 04:56N 51°29' E 003°42'0 0.0
2018-Jan-11 04:26N 51°29' E 003°42'0 0.0
2018-Jan-11 03:56N 51°29' E 003°42'0 0.0
2018-Jan-11 03:20N 51°29' E 003°42'0 0.0
2018-Jan-11 02:56N 51°29' E 003°42'0 0.0
2018-Jan-11 02:26N 51°29' E 003°42'0 0.0
2018-Jan-11 01:56N 51°29' E 003°42'0 0.0
2018-Jan-11 01:20N 51°29' E 003°42'0 0.0
2018-Jan-11 00:56N 51°29' E 003°42'0 0.0
2018-Jan-11 00:26N 51°29' E 003°42'0 0.0
2018-Jan-10 23:56N 51°29' E 003°42'0 0.0
2018-Jan-10 23:26N 51°29' E 003°42'0 0.0
2018-Jan-10 22:56N 51°29' E 003°42'0 0.0
2018-Jan-10 22:29N 51°29' E 003°42'0 0.0
2018-Jan-10 21:59N 51°29' E 003°42'0 0.0
2018-Jan-10 21:30N 51°29' E 003°42'0 0.0
2018-Jan-10 20:59N 51°29' E 003°42'1 1.8
2018-Jan-10 20:30N 51°28' E 003°42'510.1
2018-Jan-10 20:00N 51°26' E 003°34'612.7
2018-Jan-10 19:30N 51°31' E 003°27'612.1
2018-Jan-10 19:00N 51°36' E 003°23'1311.5
2018-Jan-10 17:54N 51°48' E 003°15'3 6.9
2018-Jan-10 17:30N 51°51' E 003°16'2 4.9
2018-Jan-10 16:59N 51°53' E 003°17'10910.1
2018-Jan-10 06:12N 53°29' E 004°42'313.6
2018-Jan-10 06:00N 53°30' E 004°47'713.7
2018-Jan-10 05:30N 53°33' E 004°57'713.6
2018-Jan-10 05:00N 53°35' E 005°08'10111.9
2018-Jan-09 20:30N 53°52' E 007°57'714.9
2018-Jan-09 20:00N 53°48' E 008°08'815.7
2018-Jan-09 19:30N 53°43' E 008°18'714.7
2018-Jan-09 19:00N 53°38' E 008°27'510.0
2018-Jan-09 18:30N 53°34' E 008°33'0 0.0
2018-Jan-09 18:00N 53°34' E 008°33'0 0.0
2018-Jan-09 17:31N 53°34' E 008°33'0 0.0
2018-Jan-09 16:59N 53°34' E 008°33'0 0.0
2018-Jan-09 16:29N 53°34' E 008°33'0 0.0
2018-Jan-09 15:59N 53°34' E 008°33'0 0.0
2018-Jan-09 15:29N 53°34' E 008°33'0 0.0
2018-Jan-09 14:59N 53°34' E 008°33'0 0.0
2018-Jan-09 14:29N 53°34' E 008°33'0 0.0
2018-Jan-09 13:59N 53°34' E 008°33'0 0.0
2018-Jan-09 13:29N 53°34' E 008°33'0 0.0
2018-Jan-09 12:58N 53°34' E 008°33'0 0.0
2018-Jan-09 12:28N 53°34' E 008°33'0 0.0
2018-Jan-09 11:58N 53°34' E 008°33'0 0.0
2018-Jan-09 11:28N 53°34' E 008°33'0 0.0
2018-Jan-09 10:58N 53°34' E 008°33'0 0.0
2018-Jan-09 10:28N 53°34' E 008°33'0 0.0
2018-Jan-09 09:58N 53°34' E 008°33'0 0.0
2018-Jan-09 09:28N 53°34' E 008°33'0 0.0
2018-Jan-09 08:58N 53°34' E 008°33'0 0.0
2018-Jan-09 08:28N 53°34' E 008°33'0 0.0
2018-Jan-09 07:58N 53°34' E 008°33'  

Dump ship's entire track history